Leadville, CO

9:24 AM MDT on September 22, 2014 (GMT -0600)
Lake County | Change Station
CLOSE
Current Station
Airport
Location: Leadville,
Elevation: 9928 ft
Nearby Weather Stations

Elev 9928 ft 39.23 °N, 106.32 °W | Updated 31 minutes ago

Overcast
Overcast
48 °F
Feels Like 48 °F
N
0
Wind Variable Wind from North

Today
High -- | Low -- °F
--% Chance of Precip.
Yesterday
High -- | Low -- °F
Precip. -- in
6:52 AM 7:02 PM
Waning Crescent, 2% visible
Pressure 30.07 in
Visibility 10.0 miles
Clouds Few 400 ft
Overcast 5500 ft
Dew Point 46 °F
Humidity 93%
Rainfall 0.15 in
Snow Depth 0 in , 0 in , 0 in
UV 1 out of 12
Pollen 6.70 out of 12
Air Quality Not available.
Flu Activity Not available.
METAR KLXV 221453Z AUTO 00000KT 10SM FEW004 OVC055 09/08 A3048 RMK AO2 RAE16 SLP183 P0000 60003 T00890078 50000

More Conditions Fewer Conditions

Pressure 30.07 in
Visibility 10.0 miles
Clouds Few 400 ft
Overcast 5500 ft
Dew Point 46 °F
Humidity 93%
Rainfall 0.15 in
Snow Depth 0 in , 0 in , 0 in
UV 1 out of 12
Pollen 6.70 out of 12
Air Quality Not available.
Flu Activity Not available.
METAR KLXV 221453Z AUTO 00000KT 10SM FEW004 OVC055 09/08 A3048 RMK AO2 RAE16 SLP183 P0000 60003 T00890078 50000

More Conditions Fewer Conditions

10-Day Weather Forecast

Almanac

Astronomy

Sep. 22, 2014 Rise Set
Actual Time 6:52 AM MDT 7:02 PM MDT
Civil Twilight 6:26 AM MDT 7:28 PM MDT
Nautical Twilight 5:54 AM MDT 8:00 PM MDT
Astronomical Twilight 5:23 AM MDT 8:31 PM MDT
Moon 5:24 AM MDT 6:11 PM MDT
Length of Visible Light 13h 02m
Length of Day
12h 09m
Tomorrow will be 2m 32s shorter.
Waning Crescent, 2% of the Moon is Illuminated
Today
Waning Crescent
Sep 24
New
Oct 1
First Quarter
Oct 8
Full
Oct 15
Last Quarter

Today's Extremes

State Highs State Lows

Community

WunderPhotos

Upload Photos

1,755,465 photos uploaded!

Nearby

Snow Depth

Station Depth Elevation
Porphyry Creek 0 in 10760 ft
Overland Reservoir 0 in 9880 ft
Mancos 0 in 10000 ft
Slumgullion 1 in 11440 ft
Upper San Juan 0 in 10130 ft

Earthquake Activity

City Distance Mag. Time & Date
No recent earthquake activity has been reported nearby.
Minimum magnitude displayed is 2.5.

Coastal Water Temperatures

Place Temperature
No Stations Reporting

Nearby Weather Stations